Latest Weather Observations for Tasman Island

IDT60801

Issued at 1:32 pm EDT Tuesday 12 December 2017 (issued every 30 minutes, with the page automatically refreshed every 10 minutes)

About weather observations | Map of weather stations | Latest weather observations for TAS | Other Formats
Station Details ID: 094155 Name: TASMAN ISLAND Lat: -43.24 Lon: 148.00 Height: 240.0 m
Data from the previous 72 hours. | See also: Recent months at Tasman Island
Date/Time
EDT
Temp
°C
App
Temp
°C
Dew
Point
°C
Rel
Hum
%
Delta-T
°C
Wind Press
QNH
hPa
Press
MSL
hPa
Rain since
9am
mm
Dir  Spd
km/h
Gust
km/h
Spd
kts
Gust
kts
12/01:30pm 16.4 14.6 12.2 76 2.3 SSW 13 22 7 12 1015.8 1015.6 0.0
12/01:00pm 16.3 14.3 12.7 79 2.0 S 15 20 8 11 1015.8 1015.6 0.0
12/12:30pm 17.0 15.7 12.5 75 2.5 S 11 17 6 9 1015.5 1015.3 0.0
12/12:00pm 16.6 14.8 12.2 75 2.4 S 13 19 7 10 1015.6 1015.4 0.0
12/11:30am 16.3 14.9 12.1 76 2.3 SSW 11 19 6 10 1015.9 1015.7 0.0
12/11:00am 16.5 14.9 12.7 78 2.1 SSW 13 22 7 12 1016.1 1015.9 0.0
12/10:30am 16.6 15.2 12.2 75 2.4 SW 11 20 6 11 1016.0 1015.8 0.0
12/10:00am 16.8 16.1 10.2 65 3.5 NNW 4 19 2 10 1016.1 1015.9 0.0
12/09:30am 16.1 15.0 10.0 67 3.2 NNW 6 19 3 10 1016.1 1015.9 0.0
12/09:00am 15.4 12.1 9.7 69 3.0 W 17 28 9 15 1016.0 1015.8 0.0
12/08:30am 15.5 13.9 10.1 70 2.9 WNW 9 26 5 14 1016.2 1016.1 0.0
12/08:00am 15.3 13.7 10.1 71 2.7 WNW 9 24 5 13 1016.1 1015.9 0.0
12/07:30am 14.9 14.1 9.7 71 2.7 NW 4 13 2 7 1015.9 1015.7 0.0
12/07:00am 14.3 12.5 9.3 72 2.6 WNW 9 22 5 12 1015.7 1015.5 0.0
12/06:30am 13.9 12.5 9.5 75 2.3 W 7 19 4 10 1015.9 1015.7 0.0
12/06:00am 13.4 11.0 10.2 81 1.7 WNW 13 24 7 13 1015.9 1015.7 0.0
12/05:30am 12.9 10.8 11.0 88 1.0 WNW 13 22 7 12 1015.8 1015.6 0.0
12/05:00am 13.0 10.8 10.7 86 1.2 WNW 13 22 7 12 1015.7 1015.5 0.0
12/04:30am 13.0 10.9 11.2 89 1.0 WNW 13 20 7 11 1015.8 1015.6 0.0
12/04:00am 13.0 10.8 10.9 87 1.1 WNW 13 19 7 10 1015.9 1015.7 0.0
12/03:30am 12.9 11.6 11.3 90 0.9 NW 9 13 5 7 1016.0 1015.8 0.0
12/03:00am 12.9 11.9 11.1 89 1.0 WNW 7 13 4 7 1016.4 1016.3 0.0
12/02:30am 13.0 11.4 11.7 92 0.7 NW 11 19 6 10 1016.6 1016.5 0.0
12/02:00am 12.7 11.3 12.1 96 0.3 NW 11 17 6 9 1016.7 1016.6 0.0
12/01:30am 12.9 11.9 12.4 97 0.3 NNW 9 17 5 9 1017.0 1016.9 0.0
12/01:00am 12.8 12.2 12.2 96 0.3 WNW 7 9 4 5 1017.2 1017.1 0.0
12/12:30am 13.0 12.6 12.4 96 0.3 NNW 6 11 3 6 1017.5 1017.4 0.0
12/12:00am 12.7 12.2 11.9 95 0.4 WSW 6 13 3 7 1017.8 1017.7 0.0
 
Date/Time
EDT
Temp
°C
App
Temp
°C
Dew
Point
°C
Rel
Hum
%
Delta-T
°C
Wind Press
QNH
hPa
Press
MSL
hPa
Rain since
9am
mm
Dir  Spd
km/h
Gust
km/h
Spd
kts
Gust
kts
11/11:30pm 12.9 12.8 12.1 95 0.4 WSW 4 7 2 4 1018.0 1017.9 0.0
11/11:00pm 13.0 13.4 12.4 96 0.3 NNW 2 4 1 2 1018.1 1018.0 0.0
11/10:30pm 12.9 12.9 12.3 96 0.3 NNW 4 7 2 4 1018.3 1018.2 0.0
11/10:00pm 12.8 12.3 12.0 95 0.4 N 6 7 3 4 1018.2 1018.1 0.0
11/09:30pm 12.8 12.7 12.0 95 0.4 NNE 4 7 2 4 1018.0 1017.9 0.0
11/09:00pm 12.7 12.5 11.9 95 0.4 NNW 4 7 2 4 1017.8 1017.7 0.0
11/08:30pm 12.9 13.1 11.8 93 0.6 NW 2 6 1 3 1017.7 1017.6 0.0
11/08:00pm 13.0 12.9 12.1 94 0.5 SSW 4 9 2 5 1017.8 1017.7 0.0
11/07:30pm 13.3 12.7 12.4 94 0.5 WSW 7 13 4 7 1017.6 1017.5 0.0
11/07:00pm 13.0 13.0 12.4 96 0.3 S 4 9 2 5 1017.5 1017.4 0.0
11/06:30pm 12.9 12.5 12.3 96 0.3 S 6 11 3 6 1017.5 1017.4 0.0
11/06:00pm 12.9 12.8 12.1 95 0.4 S 4 15 2 8 1017.4 1017.3 0.0
11/05:30pm 13.3 12.3 12.4 94 0.5 SW 9 17 5 9 1017.2 1017.1 0.0
11/05:00pm 13.2 12.2 12.3 94 0.5 SSW 9 15 5 8 1017.3 1017.2 0.0
11/04:30pm 13.7 12.3 12.3 91 0.8 SW 11 13 6 7 1017.2 1017.1 0.0
11/04:00pm 14.2 13.6 12.4 89 1.0 SW 7 15 4 8 1017.1 1017.0 0.0
11/03:30pm 15.2 13.9 12.5 84 1.5 SW 11 17 6 9 1017.1 1017.0 0.0
11/03:00pm 14.2 13.5 12.1 87 1.1 WSW 7 13 4 7 1017.1 1017.0 0.0
11/02:30pm 14.9 14.0 12.6 86 1.3 SW 9 13 5 7 1017.2 1017.1 0.0
11/02:00pm 14.8 13.9 12.5 86 1.3 WSW 9 15 5 8 1017.3 1017.2 0.0
11/01:30pm 14.6 13.2 12.3 86 1.3 SSW 11 17 6 9 1017.5 1017.4 0.0
11/01:00pm 14.8 14.0 11.8 82 1.6 S 7 13 4 7 1017.6 1017.5 0.0
11/12:30pm 14.6 13.8 11.7 83 1.6 SSW 7 13 4 7 1017.9 1017.8 0.0
11/12:00pm 14.4 13.8 11.7 84 1.5 S 6 9 3 5 1017.9 1017.8 0.0
11/11:30am 14.2 13.1 10.8 80 1.8 W 7 17 4 9 1017.8 1017.7 0.0
11/11:00am 13.9 11.7 10.7 81 1.7 W 13 22 7 12 1017.7 1017.6 0.0
11/10:30am 14.0 11.9 11.2 83 1.5 WSW 13 17 7 9 1017.6 1017.5 0.0
11/10:00am 13.4 11.6 10.8 84 1.4 WSW 11 24 6 13 1017.6 1017.5 0.0
11/09:30am 13.4 10.7 10.4 82 1.6 W 15 30 8 16 1017.6 1017.5 0.0
11/09:00am 13.4 12.2 10.4 82 1.6 WSW 7 26 4 14 1017.5 1017.4 0.0
11/08:30am 13.4 12.2 10.2 81 1.7 WNW 7 39 4 21 1017.0 1016.9 0.0
11/08:00am 13.3 12.0 9.9 80 1.8 NW 7 24 4 13 1016.7 1016.6 0.0
11/07:30am 13.4 10.9 9.6 78 2.0 W 13 39 7 21 1016.4 1016.3 0.0
11/07:00am 13.5 11.4 9.6 77 2.0 W 11 37 6 20 1016.4 1016.3 0.0
11/06:30am 13.4 10.5 9.8 79 1.9 W 15 41 8 22 1016.3 1016.2 0.0
11/06:00am 13.1 9.5 9.9 81 1.7 W 19 37 10 20 1016.2 1016.1 0.0
11/05:30am 12.9 10.5 9.9 82 1.6 W 13 37 7 20 1016.0 1015.8 0.0
11/05:00am 12.7 9.5 9.9 83 1.5 W 17 41 9 22 1015.9 1015.7 0.0
11/04:30am 12.8 10.7 9.8 82 1.6 WNW 11 28 6 15 1015.7 1015.5 0.0
11/04:00am 12.9 10.7 9.5 80 1.7 WNW 11 32 6 17 1015.6 1015.4 0.0
11/03:30am 13.1 11.0 9.7 80 1.8 WSW 11 33 6 18 1015.8 1015.6 0.0
11/03:00am 13.2 11.9 10.0 81 1.7 WNW 7 22 4 12 1016.0 1015.8 0.0
11/02:30am 13.3 12.2 9.9 80 1.8 WNW 6 20 3 11 1016.2 1016.1 0.0
11/02:00am 13.3 10.6 10.3 82 1.6 W 15 26 8 14 1016.5 1016.4 0.0
11/01:30am 13.6 11.8 9.6 77 2.1 W 9 17 5 9 1016.8 1016.7 0.0
11/01:00am 14.0 12.3 8.4 69 2.8 W 7 20 4 11 1016.9 1016.8 0.0
11/12:30am 14.3 12.3 8.5 68 3.0 WNW 9 26 5 14 1017.0 1016.9 0.0
11/12:00am 14.3 11.5 8.7 69 2.9 W 13 22 7 12 1017.3 1017.2 0.0
 
Date/Time
EDT
Temp
°C
App
Temp
°C
Dew
Point
°C
Rel
Hum
%
Delta-T
°C
Wind Press
QNH
hPa
Press
MSL
hPa
Rain since
9am
mm
Dir  Spd
km/h
Gust
km/h
Spd
kts
Gust
kts
10/11:30pm 14.3 12.1 9.3 72 2.6 W 11 24 6 13 1017.4 1017.3 0.0
10/11:00pm 14.3 12.5 9.5 73 2.5 W 9 24 5 13 1017.4 1017.3 0.0
10/10:30pm 15.1 13.2 7.6 61 3.8 WNW 7 24 4 13 1017.2 1017.1 0.0
10/10:00pm 15.5 12.5 7.5 59 4.0 WNW 13 32 7 17 1017.2 1017.1 0.0
10/09:30pm 15.0 12.7 8.9 67 3.1 WNW 11 43 6 23 1016.0 1015.8 0.0
10/09:00pm 15.3 10.0 8.3 63 3.6 W 26 44 14 24 1016.4 1016.3 0.0
10/08:30pm 15.1 10.7 9.0 67 3.2 W 22 37 12 20 1016.5 1016.4 0.0
10/08:00pm 16.2 12.1 7.9 58 4.2 WSW 19 46 10 25 1016.5 1016.4 0.0
10/07:30pm 15.9 12.7 8.6 62 3.8 S 15 30 8 16 1016.3 1016.2 0.0
10/07:00pm 16.3 13.4 8.3 59 4.1 SSW 13 32 7 17 1015.9 1015.7 0.0
10/06:30pm 16.4 14.5 9.1 62 3.8 SW 9 20 5 11 1015.6 1015.4 0.0
10/06:00pm 16.8 14.6 8.0 56 4.5 SSE 9 20 5 11 1015.1 1014.9 0.0
10/05:30pm 16.9 14.3 7.8 55 4.6 S 11 32 6 17 1015.0 1014.8 0.0
10/05:00pm 16.6 14.0 9.3 62 3.8 E 13 28 7 15 1014.9 1014.7 0.0
10/04:30pm 17.3 15.2 8.2 55 4.7 S 9 22 5 12 1015.0 1014.8 0.0
10/04:00pm 17.4 13.7 8.0 54 4.8 SSW 17 35 9 19 1015.1 1014.9 0.0
10/03:30pm 18.3 14.4 8.6 53 5.1 S 19 48 10 26 1014.7 1014.5 0.0
10/03:00pm 18.6 15.8 8.6 52 5.2 WSW 13 48 7 26 1014.3 1014.2 0.0
10/02:30pm 18.0 14.5 8.6 54 4.9 NW 17 56 9 30 1014.0 1013.9 0.0
10/02:00pm 17.6 14.9 9.0 57 4.5 W 13 39 7 21 1014.5 1014.3 0.0
10/01:30pm 17.9 13.9 9.0 56 4.7 SE 20 32 11 17 1014.6 1014.4 0.0
10/01:00pm 17.9 14.9 9.3 57 4.6 ENE 15 37 8 20 1014.1 1014.0 0.0
10/12:30pm 17.7 14.2 10.1 61 4.1 W 19 44 10 24 1015.1 1014.9 0.0
10/12:00pm 17.2 13.0 9.6 61 4.0 W 22 41 12 22 1015.4 1015.2 0.0
10/11:30am 17.8 12.9 9.9 60 4.2 WSW 26 41 14 22 1015.4 1015.2 0.0
10/11:00am 18.7 15.5 9.8 56 4.8 WSW 17 28 9 15 1015.4 1015.2 0.0
10/10:30am 18.1 14.4 8.1 52 5.2 WNW 17 32 9 17 1015.2 1015.0 0.0
10/10:00am 17.1 14.5 9.3 60 4.1 W 13 26 7 14 1015.2 1015.0 0.0
10/09:30am 16.5 13.2 8.2 58 4.3 W 15 37 8 20 1015.1 1014.9 0.0
10/09:00am 15.9 13.0 8.2 60 3.9 W 13 33 7 18 1015.0 1014.8 0.0
10/08:30am 16.1 12.0 7.8 58 4.2 WNW 19 39 10 21 1015.1 1014.9 0.0
10/08:00am 15.4 11.2 7.4 59 4.0 WNW 19 35 10 19 1014.7 1014.5 0.0
10/07:30am 15.2 10.4 7.5 60 3.9 WNW 22 37 12 20 1014.5 1014.3 0.0
10/07:00am 14.8 11.5 8.1 64 3.4 WNW 15 35 8 19 1014.1 1014.0 0.0
10/06:30am 14.4 8.2 7.7 64 3.4 NW 30 50 16 27 1013.7 1013.6 0.0
10/06:05am 14.2 8.3 7.5 64 3.3 NW 28 48 15 26 1013.6 1013.5 0.0
10/06:00am 14.2 7.9 7.3 63 3.4 NW 30 48 16 26 1013.6 1013.5 0.0
10/05:52am 14.1 8.2 7.4 64 3.3 NW 28 48 15 26 1013.6 1013.5 0.0
10/05:30am 14.0 11.0 7.5 65 3.2 W 13 35 7 19 1013.4 1013.3 0.0
10/05:00am 13.7 9.6 7.7 67 3.0 WNW 19 44 10 24 1013.3 1013.2 0.0
10/04:30am 13.7 8.3 7.9 68 2.9 WNW 26 43 14 23 1013.3 1013.2 0.0
10/04:05am 13.6 7.7 7.6 67 3.0 WNW 28 46 15 25 1013.2 1013.1 0.0
10/04:00am 13.6 7.7 7.4 66 3.1 WNW 28 44 15 24 1013.1 1013.0 0.0
10/03:31am 13.6 7.8 7.8 68 2.9 WNW 28 48 15 26 1013.1 1013.0 0.0
10/03:30am 13.6 8.1 7.4 66 3.1 WNW 26 48 14 26 1013.1 1013.0 0.0
10/03:00am 13.4 9.9 7.4 67 3.0 NW 15 37 8 20 1012.9 1012.8 0.0
10/02:30am 13.3 10.2 7.3 67 3.0 WNW 13 41 7 22 1013.2 1013.1 0.0
10/02:00am 13.3 6.9 6.9 65 3.1 NW 30 54 16 29 1013.4 1013.3 0.0
10/01:30am 13.4 5.9 6.3 62 3.4 NW 35 54 19 29 1013.6 1013.5 0.0
10/01:29am 13.4 6.3 6.3 62 3.4 NW 33 52 18 28 1013.6 1013.5 0.0
10/01:00am 13.4 6.9 6.7 64 3.3 WNW 30 44 16 24 1013.8 1013.7 0.0
10/12:30am 13.5 6.4 6.4 62 3.4 WNW 33 54 18 29 1013.5 1013.4 0.0
10/12:28am 13.5 7.0 6.6 63 3.4 WNW 30 54 16 29 1013.6 1013.5 0.0
10/12:00am 13.7 7.8 7.5 66 3.1 WNW 28 41 15 22 1014.0 1013.9 0.0
 
Date/Time
EDT
Temp
°C
App
Temp
°C
Dew
Point
°C
Rel
Hum
%
Delta-T
°C
Wind Press
QNH
hPa
Press
MSL
hPa
Rain since
9am
mm
Dir  Spd
km/h
Gust
km/h
Spd
kts
Gust
kts
09/11:30pm 13.9 8.5 7.9 67 3.0 NW 26 37 14 20 1014.1 1014.0 0.0
09/11:00pm 13.9 11.2 7.4 65 3.2 W 11 33 6 18 1014.0 1013.9 0.0
09/10:30pm 13.6 10.7 6.7 63 3.4 WNW 11 24 6 13 1014.2 1014.1 0.0
09/10:00pm 13.9 10.6 6.3 60 3.7 WNW 13 28 7 15 1014.2 1014.1 0.0
09/09:30pm 13.8 11.8 6.9 63 3.4 WNW 7 26 4 14 1014.0 1013.9 0.0
09/09:00pm 14.1 10.8 6.2 59 3.8 WSW 13 39 7 21 1013.3 1013.2 0.0
09/08:30pm 14.4 10.6 7.5 63 3.4 NW 17 41 9 22 1012.7 1012.6 0.0
09/08:00pm 13.7 9.5 8.1 69 2.8 W 20 35 11 19 1012.8 1012.7 0.0
09/07:30pm 13.4 9.5 8.5 72 2.5 WSW 19 32 10 17 1012.2 1012.0 0.0
09/07:00pm 13.4 9.9 8.7 73 2.4 SW 17 43 9 23 1012.1 1011.9 0.0
09/06:30pm 13.7 9.8 8.7 72 2.5 SW 19 41 10 22 1011.5 1011.3 0.0
09/06:00pm 13.6 9.9 9.3 75 2.2 SW 19 48 10 26 1011.0 1010.8 0.0
09/05:30pm 13.2 6.0 9.3 77 2.0 SW 37 65 20 35 1010.4 1010.2 0.0
09/05:00pm 13.4 6.9 8.9 74 2.3 SW 33 63 18 34 1010.2 1010.0 0.0
09/04:30pm 13.6 7.7 8.9 73 2.4 SW 30 56 16 30 1009.8 1009.7 0.0
09/04:09pm 13.9 8.4 9.1 73 2.5 SW 28 54 15 29 1009.8 1009.7 0.0
09/04:00pm 14.4 10.1 9.4 72 2.6 SW 22 50 12 27 1009.6 1009.5 0.0
09/03:32pm 13.9 8.5 9.5 75 2.3 SW 28 57 15 31 1009.6 1009.5 0.0
09/03:30pm 14.0 9.0 9.4 74 2.4 SW 26 57 14 31 1009.6 1009.5 0.0
09/03:00pm 12.9 6.0 9.0 77 2.0 SW 35 70 19 38 1009.2 1009.1 0.0
09/02:30pm 13.9 8.6 9.9 77 2.1 SSW 28 61 15 33 1008.9 1008.7 0.0
09/02:13pm 14.3 9.4 10.1 76 2.2 SW 26 56 14 30 1008.7 1008.5 0.0
09/02:00pm 15.1 11.7 10.5 74 2.5 WSW 19 39 10 21 1008.8 1008.6 0.0

Other Formats:

Comma delimited format used in spreadsheet applications
http://www.bom.gov.au/fwo/IDT60801/IDT60801.95986.axf

JavaScript Object Notation format (JSON) in row-major order
http://www.bom.gov.au/fwo/IDT60801/IDT60801.95986.json